Strona główna
METAR-TAF:

METAR-TAF

Lotnisko :

Port lotniczy Kozani

Kozani, Grecja

Szerokość geograficzna: 40-18N, Długość geograficzna: 021-47E, wysokość: 634 m

Aktualna obserwacja pogody

Raport powstał 33 minut temu, godzina 00:50 UTC
Wiatr 6 kt od północno-północny zachód, zmienny między północny zachód i północno-północny wschód
Temperatura 5°C
Wilgotność 93%
Ciśnienie 1022 hPa
słaby deszcz

METAR: LGKZ 060050Z AUTO 34006KT 310V020 //// -RA ////// 05/04 Q1022 RE//

czas: 04:23 (01:23 UTC)


TAF: brakujący

Obserwacja i prognoza pogody dla ponad 4000 lotnisk (raport METAR i TAF).

Dostępne stacje oznaczono żółtymi i czerwonymi punktami na mapie.

Najedź kursorem aby zobaczyć nazwę stacji.

Kliknij aby zobaczyć obserwacje i prognozy pogody.

Aby zmienić mapę: kliknij na zielony przycisk z czarnym krzyżykiem, aby powiększyć; na zielony przycisk z myślnikiem, aby pomniejszyć; na zielone strzałki, aby przejść do map sąsiednich.


METAR-TAF: